.
WxDataArchive / Data Records for 2013-10-03
2013-10-02 October 2013 2013-10-04

Data Records for Thursday, 03 October 2013

Time	Temp	Chill	HIndex	Humid	Dewpt	 Wind 	HiWind	WindDir	Rain 	Barom 
-----	----	-----	------	-----	-----	------	------	-------	-----	----- 
00:00	65.5	65.5	65.5	91	62.8	0	0	---	0.00	30.018 
00:05	65.5	65.5	65.5	91	62.8	0	0	---	0.00	30.018 
00:10	65.3	65.3	65.3	91	62.6	0	0	---	0.00	30.018 
00:15	65.3	65.3	65.3	91	62.6	0	0	---	0.00	30.017 
00:20	65.2	65.2	65.2	91	62.5	0	0	---	0.00	30.017 
00:25	65.0	65.0	65.0	91	62.3	0	0	---	0.00	30.017 
00:30	64.8	64.8	64.8	91	62.1	0	0	---	0.00	30.016 
00:35	64.7	64.7	64.7	91	62.0	0	0	---	0.00	30.016 
00:40	64.7	64.7	64.7	91	62.0	0	0	---	0.00	30.016 
00:45	64.5	64.5	64.5	92	62.1	0	0	---	0.00	30.009 
00:50	64.3	64.3	64.3	92	61.9	0	0	---	0.00	30.009 
00:55	64.3	64.3	64.3	92	61.9	0	0	---	0.00	30.009 
01:00	64.2	64.2	64.2	92	61.8	0	0	---	0.00	30.011 
01:05	64.2	64.2	64.2	92	61.8	0	0	---	0.00	30.011 
01:10	64.0	64.0	64.0	92	61.6	0	0	---	0.00	30.011 
01:15	63.9	63.9	63.9	92	61.5	0	0	---	0.00	30.002 
01:20	63.9	63.9	63.9	92	61.5	0	0	---	0.00	30.002 
01:25	63.7	63.7	63.7	92	61.3	0	0	---	0.00	30.002 
01:30	63.5	63.5	63.5	92	61.1	0	0	---	0.00	30.000 
01:35	63.5	63.5	63.5	92	61.1	0	0	---	0.00	30.000 
01:40	63.4	63.4	63.4	92	61.0	0	0	---	0.00	30.000 
01:45	63.2	63.2	63.2	92	60.8	0	0	---	0.00	29.998 
01:50	63.2	63.2	63.2	93	61.1	0	0	---	0.00	29.998 
01:55	63.2	63.2	63.2	93	61.1	0	0	---	0.00	29.998 
02:00	63.1	63.1	63.1	93	61.0	0	0	---	0.00	29.997 
02:05	62.9	62.9	62.9	93	60.8	0	0	---	0.00	29.997 
02:10	62.9	62.9	62.9	93	60.8	0	0	---	0.00	29.997 
02:15	63.1	63.1	63.1	93	61.0	0	0	---	0.00	29.998 
02:20	63.1	63.1	63.1	93	61.0	0	0	---	0.00	29.998 
02:25	62.9	62.9	62.9	93	60.8	0	0	---	0.00	29.998 
02:30	62.9	62.9	62.9	93	60.8	0	0	---	0.00	29.994 
02:35	62.9	62.9	62.9	93	60.8	0	0	---	0.00	29.994 
02:40	62.7	62.7	62.7	93	60.6	0	0	---	0.00	29.994 
02:45	62.7	62.7	62.7	94	60.9	0	0	---	0.00	29.993 
02:50	62.9	62.9	62.9	94	61.1	0	0	---	0.00	29.993 
02:55	62.9	62.9	62.9	94	61.1	0	0	---	0.00	29.993 
03:00	62.9	62.9	62.9	94	61.1	0	0	---	0.00	29.986 
03:05	63.1	63.1	63.1	94	61.3	0	0	---	0.00	29.986 
03:10	63.1	63.1	63.1	94	61.3	0	0	---	0.00	29.986 
03:15	63.1	63.1	63.1	94	61.3	0	0	---	0.00	29.982 
03:20	62.9	62.9	62.9	94	61.1	0	0	---	0.00	29.982 
03:25	62.9	62.9	62.9	94	61.1	0	0	---	0.00	29.982 
03:30	62.9	62.9	62.9	94	61.1	0	0	---	0.00	29.982 
03:35	62.7	62.7	62.7	94	60.9	0	0	---	0.00	29.982 
03:40	62.6	62.6	62.6	94	60.8	0	0	---	0.00	29.982 
03:45	62.4	62.4	62.4	94	60.6	0	0	---	0.00	29.983 
03:50	62.3	62.3	62.3	94	60.5	0	0	---	0.00	29.983 
03:55	62.1	62.1	62.1	94	60.3	0	0	---	0.00	29.983 
04:00	62.1	62.1	62.1	94	60.3	0	0	---	0.00	29.988 
04:05	62.0	62.0	62.0	94	60.2	0	0	---	0.00	29.988 
04:10	62.0	62.0	62.0	94	60.2	0	0	---	0.00	29.988 
04:15	61.8	61.8	61.8	95	60.3	0	0	---	0.00	29.999 
04:20	62.0	62.0	62.0	95	60.5	0	0	---	0.00	29.999 
04:25	62.0	62.0	62.0	95	60.5	0	0	---	0.00	29.999 
04:30	62.0	62.0	62.0	95	60.5	0	0	---	0.00	29.999 
04:35	62.1	62.1	62.1	95	60.6	0	0	---	0.00	29.999 
04:40	62.1	62.1	62.1	95	60.6	0	0	---	0.00	29.999 
04:45	62.1	62.1	62.1	95	60.6	0	0	---	0.00	29.996 
04:50	62.1	62.1	62.1	95	60.6	0	0	---	0.00	29.996 
04:55	62.1	62.1	62.1	95	60.6	0	0	---	0.00	29.996 
05:00	62.3	62.3	62.3	95	60.8	0	0	---	0.00	29.998 
05:05	62.3	62.3	62.3	95	60.8	0	0	---	0.00	29.998 
05:10	62.4	62.4	62.4	95	60.9	0	0	---	0.00	29.998 
05:15	62.6	62.6	62.6	95	61.1	0	0	---	0.00	29.998 
05:20	62.7	62.7	62.7	95	61.2	0	0	---	0.00	29.998 
05:25	62.9	62.9	62.9	95	61.4	0	0	---	0.00	29.998 
05:30	63.1	63.1	63.1	95	61.6	0	0	---	0.00	29.987 
05:35	63.2	63.2	63.2	96	62.0	0	0	---	0.00	29.987 
05:40	63.2	63.2	63.2	96	62.0	0	0	---	0.00	29.987 
05:45	63.4	63.4	63.4	96	62.2	0	0	---	0.00	29.985 
05:50	63.4	63.4	63.4	96	62.2	0	0	---	0.00	29.985 
05:55	63.5	63.5	63.5	96	62.3	0	0	---	0.00	29.985 
06:00	63.7	63.7	63.7	96	62.5	0	1	90	0.00	29.984 
06:05	63.7	63.7	63.7	96	62.5	0	1	90	0.00	29.984 
06:10	63.9	63.9	63.9	96	62.7	0	1	90	0.00	29.984 
06:15	63.9	63.9	63.9	96	62.7	0	1	90	0.00	29.996 
06:20	63.9	63.9	63.9	96	62.7	0	0	---	0.00	29.996 
06:25	63.9	63.9	63.9	96	62.7	0	0	---	0.00	29.996 
06:30	63.9	63.9	63.9	96	62.7	0	0	---	0.00	30.001 
06:35	64.0	64.0	64.0	96	62.8	0	0	---	0.00	30.001 
06:40	64.0	64.0	64.0	96	62.8	0	0	---	0.00	30.001 
06:45	64.0	64.0	64.0	96	62.8	0	0	---	0.00	29.997 
06:50	64.0	64.0	64.0	96	62.8	0	1	90	0.00	29.997 
06:55	64.2	64.2	64.2	96	63.0	0	0	---	0.00	29.997 
07:00	64.2	64.2	64.2	96	63.0	0	0	---	0.00	30.000 
07:05	64.2	64.2	64.2	96	63.0	0	1	90	0.00	30.000 
07:10	64.2	64.2	64.2	96	63.0	0	0	---	0.00	30.000 
07:15	64.0	64.0	64.0	96	62.8	0	0	---	0.00	30.001 
07:20	64.0	64.0	64.0	96	62.8	0	0	---	0.00	30.001 
07:25	63.9	63.9	63.9	96	62.7	0	0	---	0.00	30.001 
07:30	64.0	64.0	64.0	96	62.8	0	0	---	0.00	30.002 
07:35	64.0	64.0	64.0	96	62.8	0	0	---	0.00	30.002 
07:40	64.0	64.0	64.0	96	62.8	0	0	---	0.00	30.002 
07:45	64.0	64.0	64.0	96	62.8	0	0	---	0.00	30.002 
07:50	64.0	64.0	64.0	96	62.8	0	0	---	0.00	30.002 
07:55	64.2	64.2	64.2	96	63.0	0	0	---	0.00	30.002 
08:00	64.2	64.2	64.2	96	63.0	0	0	---	0.00	29.998 
08:05	64.2	64.2	64.2	96	63.0	0	0	---	0.00	29.998 
08:10	64.3	64.3	64.3	96	63.1	0	0	---	0.00	29.998 
08:15	64.3	64.3	64.3	96	63.1	0	0	---	0.00	29.998 
08:20	64.3	64.3	64.3	96	63.1	0	0	---	0.01	29.998 
08:25	64.5	64.5	64.5	96	63.3	0	0	---	0.00	29.998 
08:30	64.5	64.5	64.5	96	63.3	0	0	---	0.01	29.989 
08:35	64.5	64.5	64.5	96	63.3	0	0	---	0.00	29.989 
08:40	64.7	64.7	64.7	96	63.5	0	0	---	0.00	29.989 
08:45	64.8	64.8	64.8	96	63.6	0	0	---	0.00	30.000 
08:50	65.0	65.0	65.0	96	63.8	0	0	---	0.00	30.000 
08:55	65.2	65.2	65.2	96	64.0	0	0	---	0.00	30.000 
09:00	65.5	65.5	65.5	96	64.3	0	0	---	0.00	30.005 
09:05	65.6	65.6	65.6	96	64.4	0	0	---	0.00	30.005 
09:10	65.8	65.8	65.8	96	64.6	0	0	---	0.00	30.005 
09:15	66.0	66.0	66.0	96	64.8	0	0	---	0.00	30.011 
09:20	66.1	66.1	66.1	96	64.9	0	1	90	0.00	30.011 
09:25	66.3	66.3	66.3	96	65.1	0	0	---	0.00	30.011 
09:30	66.4	66.4	66.4	96	65.2	0	1	90	0.00	30.016 
09:35	66.6	66.6	66.6	96	65.4	0	1	90	0.00	30.016 
09:40	66.8	66.8	66.8	96	65.6	0	1	90	0.00	30.016 
09:45	66.8	66.8	66.8	96	65.6	0	1	90	0.00	30.017 
09:50	67.1	67.1	67.1	96	65.9	0	1	90	0.00	30.017 
09:55	67.6	67.6	67.6	96	66.4	0	1	90	0.00	30.017 
10:00	68.1	68.1	68.1	96	66.9	0	2	90	0.00	30.012 
10:05	68.4	68.4	68.4	96	67.2	0	1	112	0.00	30.012 
10:10	68.4	68.4	68.4	96	67.2	0	1	112	0.00	30.012 
10:15	68.4	68.4	68.4	96	67.2	0	2	112	0.00	30.008 
10:20	68.4	68.4	68.4	96	67.2	0	1	112	0.00	30.008 
10:25	68.6	68.6	68.6	96	67.4	0	0	---	0.00	30.008 
10:30	68.6	68.6	68.6	96	67.4	0	1	112	0.00	30.003 
10:35	68.8	68.8	68.8	96	67.6	0	1	112	0.00	30.003 
10:40	68.8	68.8	68.8	96	67.6	0	2	112	0.00	30.003 
10:45	68.8	68.8	68.8	96	67.6	0	2	112	0.00	30.005 
10:50	68.9	68.9	68.9	96	67.7	0	1	112	0.00	30.005 
10:55	69.4	69.4	69.4	96	68.2	0	2	112	0.00	30.005 
11:00	70.1	70.1	70.1	96	68.9	0	2	112	0.00	30.001 
11:05	70.4	70.4	70.4	95	68.9	1	3	112	0.00	30.001 
11:10	70.3	70.3	70.3	94	68.5	1	4	270	0.00	30.001 
11:15	70.4	70.4	70.4	93	68.3	1	3	248	0.00	30.003 
11:20	70.8	70.8	70.8	92	68.4	0	2	248	0.00	30.003 
11:25	71.1	71.1	71.1	91	68.3	0	2	248	0.00	30.003 
11:30	71.6	71.6	71.6	90	68.5	0	1	248	0.00	30.000 
11:35	71.6	71.6	71.6	88	67.8	1	4	248	0.00	30.000 
11:40	71.6	71.6	71.6	87	67.5	0	3	248	0.00	30.000 
11:45	72.0	72.0	72.0	85	67.2	0	3	270	0.00	30.003 
11:50	72.1	72.1	72.1	84	67.0	0	2	270	0.00	30.003 
11:55	72.5	72.5	72.5	84	67.4	1	4	270	0.00	30.003 
12:00	73.0	73.0	73.0	82	67.2	1	4	270	0.00	30.003 
12:05	73.5	73.5	73.5	80	66.9	1	3	248	0.00	30.003 
12:10	74.0	74.0	74.0	80	67.4	1	5	270	0.00	30.003 
12:15	74.2	74.2	74.2	79	67.3	1	3	270	0.00	30.002 
12:20	74.2	74.2	74.2	79	67.3	0	2	248	0.00	30.002 
12:25	73.9	73.9	73.9	78	66.6	1	3	248	0.00	30.002 
12:30	73.5	73.5	73.5	78	66.2	1	2	270	0.00	30.001 
12:35	73.7	73.7	73.7	78	66.4	0	2	270	0.00	30.001 
12:40	74.0	74.0	74.0	78	66.7	1	2	292	0.00	30.001 
12:45	74.2	74.2	74.2	77	66.5	1	5	292	0.00	29.999 
12:50	74.6	74.6	74.6	77	66.9	1	5	68	0.00	29.999 
12:55	75.3	75.3	76.4	76	67.2	1	4	225	0.00	29.999 
13:00	75.8	75.8	77.1	75	67.3	1	4	68	0.00	29.997 
13:05	76.1	76.1	77.6	73	66.8	1	3	292	0.00	29.997 
13:10	76.1	76.1	77.5	74	67.2	1	3	292	0.00	29.997 
13:15	76.3	76.3	77.9	72	66.6	1	5	270	0.00	29.991 
13:20	76.1	76.1	77.7	72	66.4	1	3	292	0.00	29.991 
13:25	75.8	75.8	77.3	73	66.5	0	2	292	0.00	29.991 
13:30	75.6	75.6	77.0	73	66.3	1	2	292	0.00	29.987 
13:35	75.3	75.3	76.7	73	66.0	0	2	270	0.00	29.987 
13:40	75.1	75.1	76.4	74	66.2	0	1	270	0.00	29.987 
13:45	75.3	75.3	76.6	74	66.4	0	2	270	0.00	29.983 
13:50	75.4	75.4	76.8	73	66.1	1	2	270	0.00	29.983 
13:55	75.4	75.4	76.7	74	66.5	0	2	270	0.00	29.983 
14:00	75.8	75.8	77.2	74	66.9	0	2	270	0.00	29.971 
14:05	76.0	76.0	77.5	73	66.7	1	4	315	0.00	29.971 
14:10	76.3	76.3	77.8	73	67.0	1	2	315	0.00	29.971 
14:15	77.2	77.2	79.0	73	67.9	1	4	112	0.00	29.967 
14:20	77.7	77.7	79.6	68	66.3	1	3	248	0.00	29.967 
14:25	77.9	77.9	79.7	65	65.2	1	5	270	0.00	29.967 
14:30	78.1	78.1	80.0	65	65.4	1	3	248	0.00	29.966 
14:35	78.8	78.8	80.7	63	65.1	1	3	248	0.00	29.966 
14:40	79.0	79.0	80.9	63	65.3	2	7	270	0.00	29.966 
14:45	79.2	79.2	81.1	63	65.5	1	4	292	0.00	29.955 
14:50	79.0	79.0	80.8	62	64.8	1	5	292	0.00	29.955 
14:55	78.5	78.5	80.3	63	64.8	1	5	270	0.00	29.955 
15:00	78.3	78.3	80.1	63	64.6	2	4	270	0.00	29.954 
15:05	78.3	78.3	80.2	65	65.5	1	3	270	0.00	29.954 
15:10	78.5	78.5	80.3	63	64.8	1	6	270	0.00	29.954 
15:15	78.5	78.5	80.3	62	64.4	1	4	270	0.00	29.952 
15:20	78.5	78.5	80.3	62	64.4	1	3	270	0.00	29.952 
15:25	78.5	78.5	80.3	62	64.4	0	2	315	0.00	29.952 
15:30	78.5	78.5	80.3	62	64.4	0	2	270	0.00	29.946 
15:35	78.5	78.5	80.3	63	64.8	0	2	270	0.00	29.946 
15:40	78.5	78.5	80.3	62	64.4	1	3	270	0.00	29.946 
15:45	78.3	78.3	80.1	62	64.2	1	3	270	0.00	29.939 
15:50	78.1	78.1	79.9	62	64.0	0	3	270	0.00	29.939 
15:55	78.1	78.1	79.9	62	64.0	1	4	270	0.00	29.939 
16:00	78.5	78.5	80.2	61	63.9	1	4	270	0.00	29.936 
16:05	78.6	78.6	80.3	61	64.0	1	3	270	0.00	29.936 
16:10	78.6	78.6	80.4	62	64.5	0	2	112	0.00	29.936 
16:15	78.8	78.8	80.5	61	64.2	1	3	270	0.00	29.930 
16:20	79.0	79.0	80.8	61	64.4	0	1	270	0.00	29.930 
16:25	79.2	79.2	80.9	60	64.1	0	2	270	0.00	29.930 
16:30	79.0	79.0	80.6	59	63.4	1	4	292	0.00	29.925 
16:35	78.8	78.8	80.4	59	63.2	1	2	292	0.00	29.925 
16:40	78.8	78.8	80.5	60	63.7	1	3	292	0.00	29.925 
16:45	78.6	78.6	80.3	60	63.5	1	4	270	0.00	29.925 
16:50	78.5	78.5	80.2	60	63.4	0	3	315	0.00	29.925 
16:55	78.3	78.3	80.0	61	63.7	0	1	315	0.00	29.925 
17:00	78.1	78.1	79.8	61	63.5	1	2	315	0.00	29.922 
17:05	77.9	77.9	79.6	61	63.3	0	2	315	0.00	29.922 
17:10	77.9	77.9	79.6	62	63.8	0	1	315	0.00	29.922 
17:15	77.9	77.9	79.6	62	63.8	0	2	315	0.00	29.919 
17:20	77.9	77.9	79.6	62	63.8	0	1	315	0.00	29.919 
17:25	77.9	77.9	79.7	63	64.3	0	1	315	0.00	29.919 
17:30	77.9	77.9	79.7	63	64.3	0	1	315	0.00	29.918 
17:35	77.7	77.7	79.5	63	64.1	0	1	315	0.00	29.918 
17:40	77.7	77.7	79.5	63	64.1	0	1	315	0.00	29.918 
17:45	77.7	77.7	79.5	63	64.1	0	1	315	0.00	29.919 
17:50	77.7	77.7	79.5	63	64.1	0	1	315	0.00	29.919 
17:55	77.6	77.6	79.4	64	64.4	0	0	---	0.00	29.919 
18:00	77.4	77.4	79.2	64	64.2	0	1	315	0.00	29.920 
18:05	77.2	77.2	79.0	65	64.5	0	0	---	0.00	29.920 
18:10	77.2	77.2	79.0	65	64.5	0	0	---	0.00	29.920 
18:15	77.0	77.0	78.8	66	64.8	0	0	---	0.00	29.915 
18:20	77.0	77.0	78.8	66	64.8	0	0	---	0.00	29.915 
18:25	76.8	76.8	78.6	66	64.6	0	0	---	0.00	29.915 
18:30	76.8	76.8	78.6	67	65.0	0	0	---	0.00	29.911 
18:35	76.8	76.8	78.6	67	65.0	0	1	315	0.00	29.911 
18:40	76.8	76.8	78.6	67	65.0	0	0	---	0.00	29.911 
18:45	76.8	76.8	78.6	67	65.0	0	0	---	0.00	29.906 
18:50	76.8	76.8	78.6	67	65.0	0	0	---	0.00	29.906 
18:55	76.8	76.8	78.6	67	65.0	0	0	---	0.00	29.906 
19:00	76.7	76.7	78.5	67	64.9	0	1	315	0.00	29.905 
19:05	76.5	76.5	78.3	67	64.7	0	1	315	0.00	29.905 
19:10	76.3	76.3	78.0	68	64.9	0	0	---	0.00	29.905 
19:15	76.0	76.0	77.7	68	64.7	0	0	---	0.00	29.908 
19:20	75.4	75.4	77.1	69	64.5	0	0	---	0.00	29.908 
19:25	74.9	74.9	74.9	70	64.4	0	0	---	0.00	29.908 
19:30	74.6	74.6	74.6	71	64.6	0	0	---	0.00	29.919 
19:35	74.0	74.0	74.0	72	64.4	0	0	---	0.00	29.919 
19:40	73.7	73.7	73.7	73	64.5	0	1	315	0.00	29.919 
19:45	73.5	73.5	73.5	74	64.7	0	0	---	0.00	29.922 
19:50	73.2	73.2	73.2	75	64.8	0	0	---	0.00	29.922 
19:55	73.0	73.0	73.0	75	64.6	0	1	315	0.00	29.922 
20:00	72.8	72.8	72.8	75	64.4	0	0	---	0.00	29.926 
20:05	72.7	72.7	72.7	75	64.3	0	0	---	0.00	29.926 
20:10	72.5	72.5	72.5	76	64.5	0	0	---	0.00	29.926 
20:15	72.3	72.3	72.3	76	64.3	0	0	---	0.00	29.932 
20:20	72.1	72.1	72.1	76	64.1	0	0	---	0.00	29.932 
20:25	72.1	72.1	72.1	76	64.1	0	0	---	0.00	29.932 
20:30	72.0	72.0	72.0	76	64.0	0	0	---	0.00	29.931 
20:35	71.8	71.8	71.8	76	63.8	0	0	---	0.00	29.931 
20:40	71.6	71.6	71.6	76	63.6	0	0	---	0.00	29.931 
20:45	71.5	71.5	71.5	76	63.5	0	0	---	0.00	29.939 
20:50	71.3	71.3	71.3	77	63.7	0	0	---	0.00	29.939 
20:55	71.3	71.3	71.3	77	63.7	0	0	---	0.00	29.939 
21:00	71.1	71.1	71.1	77	63.5	0	0	---	0.00	29.942 
21:05	70.9	70.9	70.9	77	63.3	0	0	---	0.00	29.942 
21:10	70.9	70.9	70.9	77	63.3	0	0	---	0.00	29.942 
21:15	70.8	70.8	70.8	77	63.2	0	0	---	0.00	29.944 
21:20	70.6	70.6	70.6	77	63.0	0	0	---	0.00	29.944 
21:25	70.6	70.6	70.6	78	63.4	0	0	---	0.00	29.944 
21:30	70.6	70.6	70.6	78	63.4	0	0	---	0.00	29.956 
21:35	70.6	70.6	70.6	78	63.4	0	0	---	0.00	29.956 
21:40	70.6	70.6	70.6	78	63.4	0	0	---	0.00	29.956 
21:45	70.6	70.6	70.6	78	63.4	0	0	---	0.00	29.958 
21:50	70.8	70.8	70.8	77	63.2	0	0	---	0.00	29.958 
21:55	70.9	70.9	70.9	77	63.3	0	1	315	0.00	29.958 
22:00	70.9	70.9	70.9	77	63.3	0	0	---	0.00	29.960 
22:05	70.9	70.9	70.9	77	63.3	0	0	---	0.00	29.960 
22:10	70.8	70.8	70.8	77	63.2	0	1	315	0.00	29.960 
22:15	70.8	70.8	70.8	77	63.2	0	0	---	0.00	29.967 
22:20	70.9	70.9	70.9	77	63.3	0	1	315	0.00	29.967 
22:25	70.9	70.9	70.9	77	63.3	0	1	315	0.00	29.967 
22:30	70.9	70.9	70.9	77	63.3	0	0	---	0.00	29.967 
22:35	70.8	70.8	70.8	77	63.2	0	0	---	0.00	29.967 
22:40	70.8	70.8	70.8	77	63.2	0	0	---	0.00	29.967 
22:45	70.8	70.8	70.8	77	63.2	0	1	315	0.00	29.970 
22:50	70.8	70.8	70.8	77	63.2	0	1	315	0.00	29.970 
22:55	70.9	70.9	70.9	77	63.3	0	1	315	0.00	29.970 
23:00	71.3	71.3	71.3	76	63.3	0	1	315	0.00	29.975 
23:05	71.6	71.6	71.6	76	63.6	0	1	315	0.00	29.975 
23:10	71.6	71.6	71.6	75	63.2	0	1	315	0.00	29.975 
23:15	71.5	71.5	71.5	75	63.1	0	1	315	0.00	29.962 
23:20	71.5	71.5	71.5	76	63.5	0	1	315	0.00	29.962 
23:25	71.3	71.3	71.3	76	63.3	0	0	---	0.00	29.962 
23:30	71.3	71.3	71.3	76	63.3	0	0	---	0.00	29.963 
23:35	71.1	71.1	71.1	76	63.1	0	1	315	0.00	29.963 
23:40	71.1	71.1	71.1	77	63.5	0	1	315	0.00	29.963 
23:45	71.1	71.1	71.1	77	63.5	0	2	315	0.00	29.959 
23:50	71.1	71.1	71.1	77	63.5	0	1	315	0.00	29.959 
23:55	71.1	71.1	71.1	77	63.5	0	0	---	0.00	29.959 

CoCoRaHS
IN-AL-39
A2 Web Hosting
Creative Commons License
GoDaddy
search engine by freefind advanced

loaded 2018-11-14 00:16:17 • last modified 2010-11-18 10:43:29
Privacy PolicyDisclaimer
• wx.awcolley.com is powered by PmWiki v.2002016 •
• all content (unless otherwise noted) © 2018 A W Colley